« 平成26年度中部管区広域緊急援助隊合同訓練 金沢市 2014/10/8 wed | トップページ | 「空の日」 能登空港 2014/10/12 sun »

2014/10/09

ゴルフ 富山空港 2014/10/8 wed

金沢港からの帰り、河原にチョット寄ってみた。午後のER確認と、なにやら来たみたい。

RJNT 080400Z 35010KT 9999 FEW030 SCT040 21/11 Q1021

20141008_rjnt_00ja8504

ADO120 RJCC-RJNT JA8504 B737-54K

20141008_rjnt_01ja6768

JA6768 B412 富山県消防防災

20141008_rjnt_02ja006g

これに引っかかって、急いで帰ってきた訳だ・・ 整備員が出てエンジンスタートの模様

RJNT 080500Z 35009KT 320V030 9999 FEW030 SCT050 21/11 Q1021

20141008_rjnt_03ja006g

20141008_rjnt_04ja006g

20141008_rjnt_05ja006g

JA006G  CAB

抜群の離陸性能で、ゆっくり場周経路に入ります

20141008_rjnt_06ja006g

まずは、通常のRW20アプローチしてTO/GA

20141008_rjnt_07ja006g

再度RW02進入でローパス。本日は灯火関係の検査の模様。

20141008_rjnt_08ja006g

20141008_rjnt_09ja006g

やっぱり、T字翼は、カッチョエーね。

20141008_rjnt_10ja8504

20141008_rjnt_11ja8504

ADO121 RJNT-RJCC JA8504 B737-54K

20141008_rjnt_12ja006g

エアドゥが離陸した後は、RW20のPAPIアークフライト

20141008_rjnt_13ja006g

セオドライトによるRW20進入角検査

20141008_rjnt_14ja6769

おっと、金沢から帰った県警へりは、アクチャルミッションに行っていたのか。

JA6769 A109K2 富山県警察

20141008_rjnt_15ja618a

今日のERは?

20141008_rjnt_16ja618a

20141008_rjnt_17ja618a

コブ付き・・ あまり見栄えが良くないね

20141008_rjnt_18ja618a

20141008_rjnt_19ja618a

お馴染みスガキ 背後にダウンウインドでホールディング中のチェックスターが見える

ANA885 RJTT-RJNT JA618A B767-381ER

RJNT 080600Z 36009KT 9999 FEW030 SCT050 21/11 Q1020

まだ、飛行検査は続いているのだが・・ 小生は、所要があって河原を離脱。残念!

RJTT-RJNT
ANA     /882 JA8324
ANA881/884 JA79AN
ANA883/886 JA812A
ANA885/888 JA618A
ANA887/890 JA8578
ANA889/892 JA821A
ANA891       JA8357

RJCC-RJNT
ADO120/121 JA8504

ZYTL-RJNT
CSN613/614 

RCTP-RJNT
CAL170/171 B-18617

|

« 平成26年度中部管区広域緊急援助隊合同訓練 金沢市 2014/10/8 wed | トップページ | 「空の日」 能登空港 2014/10/12 sun »

富山空港」カテゴリの記事

コメント

コメントを書く



(ウェブ上には掲載しません)


コメントは記事投稿者が公開するまで表示されません。



トラックバック


この記事へのトラックバック一覧です: ゴルフ 富山空港 2014/10/8 wed:

« 平成26年度中部管区広域緊急援助隊合同訓練 金沢市 2014/10/8 wed | トップページ | 「空の日」 能登空港 2014/10/12 sun »